createdAt,value
2023-01-05T00:00:09.409Z,3.77
2023-01-05T00:02:35.998Z,3.63
2023-01-05T00:05:02.523Z,4.37
2023-01-05T00:07:28.967Z,4.83
2023-01-05T00:09:55.409Z,4.53
2023-01-05T00:12:40.596Z,3.37
2023-01-05T00:15:27.774Z,3.43
2023-01-05T00:18:23.382Z,3.13
2023-01-05T00:21:08.223Z,3.70
2023-01-05T00:23:34.645Z,2.93
2023-01-05T00:26:01.114Z,3.10
2023-01-05T00:28:27.560Z,3.00
2023-01-05T00:30:54.032Z,3.17
2023-01-05T00:33:20.462Z,3.20
2023-01-05T00:35:46.986Z,4.07
2023-01-05T00:38:13.476Z,4.10
2023-01-05T00:40:40.070Z,2.60
2023-01-05T00:43:06.607Z,3.63
2023-01-05T00:45:34.273Z,3.40
2023-01-05T00:48:00.785Z,4.00
2023-01-05T00:50:27.475Z,3.30
2023-01-05T00:52:54.035Z,3.63
2023-01-05T00:55:20.523Z,3.90
2023-01-05T00:57:47.087Z,3.90
2023-01-05T01:00:17.224Z,2.47
2023-01-05T01:02:44.048Z,2.73
2023-01-05T01:05:10.996Z,3.50
2023-01-05T01:07:37.528Z,2.93
2023-01-05T01:10:04.295Z,3.57
2023-01-05T01:12:30.856Z,3.03
2023-01-05T01:14:57.354Z,3.33
2023-01-05T01:17:23.823Z,3.43
2023-01-05T01:19:50.306Z,2.87
2023-01-05T01:22:16.779Z,3.10
2023-01-05T01:24:43.310Z,2.90
2023-01-05T01:27:09.871Z,2.67
2023-01-05T01:29:36.335Z,2.73
2023-01-05T01:32:03.048Z,2.33
2023-01-05T01:34:29.791Z,2.30
2023-01-05T01:36:56.596Z,2.33
2023-01-05T01:39:23.366Z,2.77
2023-01-05T01:41:49.979Z,2.47
2023-01-05T01:44:47.653Z,2.47
2023-01-05T01:47:24.518Z,2.53
2023-01-05T01:49:51.491Z,2.80
2023-01-05T01:52:18.373Z,2.23
2023-01-05T01:54:45.697Z,1.93
2023-01-05T01:57:13.272Z,2.73
2023-01-05T01:59:40.061Z,2.70
2023-01-05T02:02:07.018Z,2.50
2023-01-05T02:04:33.774Z,2.80
2023-01-05T02:07:01.612Z,2.60
2023-01-05T02:09:28.171Z,2.83
2023-01-05T02:12:03.618Z,3.07
2023-01-05T02:14:42.709Z,2.70
2023-01-05T02:17:30.772Z,2.83
2023-01-05T02:20:22.341Z,2.97
2023-01-05T02:23:15.246Z,3.37
2023-01-05T02:26:03.330Z,4.43
2023-01-05T02:28:39.353Z,2.70
2023-01-05T02:31:19.465Z,3.90
2023-01-05T02:34:05.111Z,2.90
2023-01-05T02:36:54.914Z,3.27
2023-01-05T02:39:27.011Z,3.20
2023-01-05T02:42:07.871Z,4.13
2023-01-05T02:44:35.350Z,3.30
2023-01-05T02:47:05.985Z,3.83
2023-01-05T02:49:35.996Z,4.30
2023-01-05T02:52:03.755Z,4.00
2023-01-05T02:54:46.922Z,3.53
2023-01-05T02:57:48.088Z,3.43
2023-01-05T03:00:19.549Z,3.77
2023-01-05T03:02:49.611Z,3.10
2023-01-05T03:05:26.769Z,3.23
2023-01-05T03:07:54.854Z,2.50
2023-01-05T03:10:40.378Z,4.03
2023-01-05T03:13:26.482Z,3.67
2023-01-05T03:16:01.934Z,2.70
2023-01-05T03:18:28.820Z,2.80
2023-01-05T03:20:55.476Z,3.03
2023-01-05T03:23:41.059Z,2.33
2023-01-05T03:26:27.213Z,2.27
2023-01-05T03:29:17.544Z,3.10
2023-01-05T03:32:24.169Z,3.30
2023-01-05T03:35:19.792Z,3.20
2023-01-05T03:38:05.002Z,3.43
2023-01-05T03:40:33.774Z,3.67
2023-01-05T03:43:01.027Z,2.40
2023-01-05T03:45:36.849Z,2.70
2023-01-05T03:48:03.441Z,3.33
2023-01-05T03:50:29.979Z,3.17
2023-01-05T03:52:56.473Z,3.30
2023-01-05T03:55:23.117Z,3.47
2023-01-05T03:57:49.686Z,2.93
2023-01-05T04:00:16.447Z,3.30
2023-01-05T04:02:43.062Z,2.90
2023-01-05T04:05:09.878Z,3.00
2023-01-05T04:07:36.314Z,2.87
2023-01-05T04:10:02.970Z,2.50
2023-01-05T04:12:29.393Z,3.13
2023-01-05T04:14:55.858Z,3.07
2023-01-05T04:17:22.308Z,3.50
2023-01-05T04:19:48.818Z,3.83
2023-01-05T04:22:15.270Z,3.50
2023-01-05T04:24:41.725Z,2.73
2023-01-05T04:27:08.180Z,3.43
2023-01-05T04:29:34.671Z,3.20
2023-01-05T04:32:01.117Z,3.67
2023-01-05T04:34:27.576Z,3.27
2023-01-05T04:36:54.041Z,4.10
2023-01-05T04:39:20.499Z,2.80
2023-01-05T04:41:48.680Z,2.87
2023-01-05T04:44:15.348Z,2.80
2023-01-05T04:46:42.123Z,2.80
2023-01-05T04:49:10.070Z,2.60
2023-01-05T04:51:36.593Z,3.00
2023-01-05T04:54:03.117Z,2.73
2023-01-05T04:56:29.603Z,2.90
2023-01-05T04:58:56.058Z,3.43
2023-01-05T05:01:22.615Z,2.73
2023-01-05T05:03:49.128Z,2.70
2023-01-05T05:06:17.539Z,2.70
2023-01-05T05:08:43.997Z,3.07
2023-01-05T05:11:10.619Z,2.90
2023-01-05T05:13:37.070Z,3.13
2023-01-05T05:16:03.675Z,2.77
2023-01-05T05:18:30.169Z,2.93
2023-01-05T05:20:56.693Z,3.73
2023-01-05T05:23:23.195Z,2.93
2023-01-05T05:25:51.286Z,2.70
2023-01-05T05:28:19.126Z,2.67
2023-01-05T05:30:45.646Z,2.33
2023-01-05T05:33:12.070Z,3.03
2023-01-05T05:35:38.521Z,3.10
2023-01-05T05:38:04.968Z,2.43
2023-01-05T05:40:31.434Z,2.83
2023-01-05T05:42:57.891Z,3.30
2023-01-05T05:45:24.361Z,2.90
2023-01-05T05:47:50.862Z,3.07
2023-01-05T05:50:17.372Z,3.80
2023-01-05T05:52:45.141Z,3.07
2023-01-05T05:55:11.666Z,2.90
2023-01-05T05:57:38.561Z,3.23
2023-01-05T06:00:05.548Z,3.33
2023-01-05T06:02:32.078Z,3.63
2023-01-05T06:04:58.585Z,3.50
2023-01-05T06:07:25.039Z,3.47
2023-01-05T06:09:51.482Z,2.67
2023-01-05T06:12:18.044Z,3.23
2023-01-05T06:14:44.590Z,3.50
2023-01-05T06:17:11.064Z,3.17
2023-01-05T06:19:37.595Z,4.27
2023-01-05T06:22:04.104Z,3.63
2023-01-05T06:24:30.590Z,3.60
2023-01-05T06:26:57.073Z,3.30
2023-01-05T06:29:23.551Z,3.80
2023-01-05T06:31:50.096Z,3.73
2023-01-05T06:34:16.567Z,3.23
2023-01-05T06:36:43.052Z,2.70
2023-01-05T06:39:09.533Z,3.53
2023-01-05T06:41:36.038Z,3.73
2023-01-05T06:44:02.596Z,3.10
2023-01-05T06:46:29.092Z,3.20
2023-01-05T06:48:55.568Z,2.97
2023-01-05T06:51:22.055Z,3.87
2023-01-05T06:53:48.570Z,3.23
2023-01-05T06:56:15.063Z,2.87
2023-01-05T06:58:41.514Z,3.13
2023-01-05T07:01:08.092Z,3.60
2023-01-05T07:03:34.644Z,3.67
2023-01-05T07:06:01.158Z,3.07
2023-01-05T07:08:27.583Z,4.17
2023-01-05T07:10:54.044Z,2.67
2023-01-05T07:13:20.604Z,2.40
2023-01-05T07:15:47.113Z,3.00
2023-01-05T07:18:13.576Z,3.63
2023-01-05T07:20:40.436Z,2.97
2023-01-05T07:23:06.893Z,3.77
2023-01-05T07:25:33.368Z,3.00
2023-01-05T07:27:59.876Z,2.60
2023-01-05T07:30:26.474Z,2.60
2023-01-05T07:32:52.990Z,3.60
2023-01-05T07:35:19.453Z,2.77
2023-01-05T07:37:46.029Z,2.27
2023-01-05T07:40:12.798Z,2.50
2023-01-05T07:42:39.275Z,2.63
2023-01-05T07:45:06.781Z,2.40
2023-01-05T07:47:33.453Z,1.60
2023-01-05T07:49:59.958Z,1.43
2023-01-05T07:52:29.399Z,1.50
2023-01-05T07:54:55.835Z,1.60
2023-01-05T07:57:22.302Z,1.37
2023-01-05T07:59:48.771Z,1.67
2023-01-05T08:02:15.435Z,1.50
2023-01-05T08:04:42.106Z,1.43
2023-01-05T08:07:11.255Z,1.50
2023-01-05T08:09:57.069Z,1.50
2023-01-05T08:12:23.619Z,1.40
2023-01-05T08:14:50.084Z,1.30
2023-01-05T08:17:16.553Z,1.23
2023-01-05T08:19:43.012Z,1.50
2023-01-05T08:22:09.511Z,1.43
2023-01-05T08:24:35.958Z,1.30
2023-01-05T08:27:02.452Z,1.30
2023-01-05T08:29:29.002Z,1.40
2023-01-05T08:31:55.538Z,1.43
2023-01-05T08:34:22.200Z,1.37
2023-01-05T08:36:48.742Z,1.30
2023-01-05T08:39:15.175Z,1.47
2023-01-05T08:41:42.131Z,2.23
2023-01-05T08:44:12.789Z,1.40
2023-01-05T08:46:39.257Z,2.17
2023-01-05T08:49:07.225Z,1.63
2023-01-05T08:51:34.065Z,1.80
2023-01-05T08:54:00.767Z,1.43
2023-01-05T08:56:30.532Z,2.10
2023-01-05T08:58:59.757Z,1.37
2023-01-05T09:01:26.643Z,1.47
2023-01-05T09:03:53.315Z,1.60
2023-01-05T09:06:20.146Z,2.10
2023-01-05T09:08:46.867Z,1.70
2023-01-05T09:11:14.719Z,1.40
2023-01-05T09:13:42.550Z,2.07
2023-01-05T09:16:12.185Z,1.67
2023-01-05T09:18:40.201Z,1.47
2023-01-05T09:21:07.333Z,1.60
2023-01-05T09:23:36.021Z,1.60
2023-01-05T09:26:10.437Z,1.60
2023-01-05T09:28:37.161Z,1.43
2023-01-05T09:31:13.037Z,1.40
2023-01-05T09:33:40.441Z,1.50
2023-01-05T09:36:07.721Z,1.27
2023-01-05T09:38:34.391Z,1.70
2023-01-05T09:41:15.238Z,1.50
2023-01-05T09:43:43.113Z,1.63
2023-01-05T09:46:14.585Z,1.60
2023-01-05T09:48:43.840Z,1.77
2023-01-05T09:51:10.695Z,1.77
2023-01-05T09:53:37.287Z,1.87
2023-01-05T09:56:04.563Z,1.90
2023-01-05T09:58:35.198Z,1.80
2023-01-05T10:01:09.509Z,1.53
2023-01-05T10:04:05.074Z,2.30
2023-01-05T10:06:34.805Z,1.90
2023-01-05T10:09:02.754Z,1.83
2023-01-05T10:11:58.066Z,1.80
2023-01-05T10:14:30.625Z,1.63
2023-01-05T10:17:22.439Z,1.90
2023-01-05T10:19:44.043Z,2.27
2023-01-05T10:22:38.430Z,2.07
2023-01-05T10:25:24.799Z,1.60
2023-01-05T10:28:27.778Z,1.87
2023-01-05T10:31:02.450Z,1.57
2023-01-05T10:33:52.551Z,2.00
2023-01-05T10:37:06.778Z,2.03
2023-01-05T10:39:39.866Z,2.10
2023-01-05T10:42:14.563Z,1.93
2023-01-05T10:44:52.983Z,1.90
2023-01-05T10:47:21.115Z,2.00
2023-01-05T10:49:48.491Z,1.83
2023-01-05T10:52:17.585Z,1.90
2023-01-05T10:54:48.762Z,2.17
2023-01-05T10:57:35.680Z,2.40
2023-01-05T11:00:17.700Z,1.90
2023-01-05T11:02:50.393Z,2.10
2023-01-05T11:05:33.595Z,2.40
2023-01-05T11:08:02.555Z,2.20
2023-01-05T11:10:30.814Z,2.20
2023-01-05T11:13:17.766Z,2.10
2023-01-05T11:15:51.175Z,2.10
2023-01-05T11:18:25.926Z,2.20
2023-01-05T11:21:11.401Z,2.47
2023-01-05T11:23:46.781Z,2.47
2023-01-05T11:26:19.420Z,2.03
2023-01-05T11:29:01.103Z,2.10
2023-01-05T11:31:33.322Z,1.73
2023-01-05T11:34:06.999Z,1.97
2023-01-05T11:36:33.549Z,1.77
2023-01-05T11:39:00.049Z,1.90
2023-01-05T11:41:26.604Z,2.00
2023-01-05T11:43:54.476Z,2.47
2023-01-05T11:46:21.640Z,2.40
2023-01-05T11:48:52.829Z,2.40
2023-01-05T11:51:40.039Z,2.43
2023-01-05T11:54:26.460Z,2.67
2023-01-05T11:57:15.926Z,2.10
2023-01-05T11:59:43.746Z,2.03
2023-01-05T12:02:22.568Z,1.90
2023-01-05T12:05:07.846Z,2.50
2023-01-05T12:07:43.038Z,2.00
2023-01-05T12:10:12.586Z,1.97
2023-01-05T12:13:11.888Z,2.10
2023-01-05T12:16:02.557Z,2.10
2023-01-05T12:18:50.101Z,2.23
2023-01-05T12:21:23.385Z,2.20
2023-01-05T12:24:16.288Z,2.37
2023-01-05T12:26:51.133Z,2.27
2023-01-05T12:33:44.337Z,2.63
2023-01-05T12:35:25.886Z,1.70
2023-01-05T12:38:30.354Z,2.33
2023-01-05T12:41:13.831Z,2.70
2023-01-05T12:43:50.935Z,2.27
2023-01-05T12:46:23.534Z,2.23
2023-01-05T12:49:01.306Z,1.87
2023-01-05T12:51:35.853Z,1.97
2023-01-05T12:54:10.678Z,1.63
2023-01-05T12:56:58.829Z,1.93
2023-01-05T12:59:43.967Z,1.70
2023-01-05T13:02:28.729Z,2.27
2023-01-05T13:04:57.072Z,1.87
2023-01-05T13:07:32.633Z,2.10
2023-01-05T13:10:04.182Z,2.43
2023-01-05T13:12:32.196Z,2.27
2023-01-05T13:15:07.594Z,1.90
2023-01-05T13:17:37.198Z,1.80
2023-01-05T13:20:42.407Z,2.17
2023-01-05T13:23:17.126Z,1.60
2023-01-05T13:25:55.852Z,2.10
2023-01-05T13:28:24.547Z,1.73
2023-01-05T13:31:04.846Z,1.90
2023-01-05T13:33:45.072Z,2.00
2023-01-05T13:36:33.292Z,2.03
2023-01-05T13:39:10.665Z,1.90
2023-01-05T13:42:08.580Z,1.57
2023-01-05T13:44:44.947Z,1.90
2023-01-05T13:47:28.017Z,1.70
2023-01-05T13:50:19.819Z,2.10
2023-01-05T13:53:03.872Z,2.30
2023-01-05T13:55:32.181Z,1.90
2023-01-05T13:57:58.738Z,1.80
2023-01-05T14:00:38.257Z,2.20
2023-01-05T14:03:15.841Z,1.57
2023-01-05T14:05:52.279Z,2.90
2023-01-05T14:08:52.628Z,2.30
2023-01-05T14:11:21.806Z,2.33
2023-01-05T14:13:54.365Z,2.10
2023-01-05T14:16:44.246Z,2.50
2023-01-05T14:19:33.412Z,3.20
2023-01-05T14:22:20.217Z,2.70
2023-01-05T14:24:49.579Z,2.50
2023-01-05T14:27:23.741Z,2.00
2023-01-05T14:32:21.503Z,2.10
2023-01-05T14:34:53.602Z,2.40
2023-01-05T14:37:34.126Z,3.10
2023-01-05T14:40:08.800Z,2.27
2023-01-05T14:42:39.655Z,2.20
2023-01-05T14:45:08.398Z,2.27
2023-01-05T14:47:44.007Z,2.33
2023-01-05T14:50:33.510Z,1.73
2023-01-05T14:53:11.185Z,2.30
2023-01-05T14:55:40.481Z,2.60
2023-01-05T14:58:35.662Z,2.70
2023-01-05T15:01:19.242Z,2.30
2023-01-05T15:04:27.358Z,2.53
2023-01-05T15:07:15.290Z,2.13
2023-01-05T15:10:10.454Z,2.33
2023-01-05T15:12:52.994Z,3.10
2023-01-05T15:15:22.544Z,2.10
2023-01-05T15:18:00.093Z,2.20
2023-01-05T15:20:52.284Z,2.10
2023-01-05T15:23:59.721Z,2.20
2023-01-05T15:26:45.102Z,3.27
2023-01-05T15:29:30.289Z,2.60
2023-01-05T15:32:00.546Z,1.90
2023-01-05T15:34:34.609Z,2.50
2023-01-05T15:37:35.317Z,2.83
2023-01-05T15:40:04.396Z,2.93
2023-01-05T15:42:39.181Z,3.13
2023-01-05T15:45:28.075Z,2.73
2023-01-05T15:47:56.832Z,2.70
2023-01-05T15:50:27.691Z,2.80
2023-01-05T15:52:59.653Z,3.20
2023-01-05T15:55:27.893Z,3.63
2023-01-05T15:58:00.026Z,3.13
2023-01-05T16:00:29.305Z,4.07
2023-01-05T16:02:55.831Z,3.40
2023-01-05T16:05:32.711Z,3.20
2023-01-05T16:08:08.256Z,3.00
2023-01-05T16:10:44.269Z,2.97
2023-01-05T16:13:19.585Z,3.83
2023-01-05T16:15:49.862Z,3.40
2023-01-05T16:18:20.002Z,4.63
2023-01-05T16:20:49.811Z,5.20
2023-01-05T16:23:22.253Z,4.93
2023-01-05T16:25:57.614Z,4.43
2023-01-05T16:28:25.124Z,3.67
2023-01-05T16:30:53.613Z,3.40
2023-01-05T16:33:39.294Z,3.97
2023-01-05T16:36:20.912Z,3.50
2023-01-05T16:38:48.088Z,3.77
2023-01-05T16:41:23.070Z,3.77
2023-01-05T16:43:56.061Z,5.60
2023-01-05T16:46:26.512Z,9.03
2023-01-05T16:48:55.439Z,13.00
2023-01-05T16:51:23.974Z,14.97
2023-01-05T16:53:54.290Z,11.20
2023-01-05T16:56:42.289Z,11.87
2023-01-05T16:59:39.739Z,12.30
2023-01-05T17:02:26.153Z,20.37
2023-01-05T17:04:52.605Z,19.53
2023-01-05T17:07:20.097Z,19.53
2023-01-05T17:09:46.820Z,19.63
2023-01-05T17:12:13.929Z,13.00
2023-01-05T17:14:41.421Z,10.20
2023-01-05T17:17:14.262Z,10.07
2023-01-05T17:19:41.120Z,8.30
2023-01-05T17:22:11.542Z,9.43
2023-01-05T17:24:39.315Z,11.37
2023-01-05T17:27:05.864Z,11.87
2023-01-05T17:29:33.116Z,12.23
2023-01-05T17:32:00.262Z,12.97
2023-01-05T17:34:26.973Z,17.47
2023-01-05T17:36:56.868Z,14.30
2023-01-05T17:39:24.341Z,10.53
2023-01-05T17:42:14.718Z,8.40
2023-01-05T17:44:41.170Z,7.10
2023-01-05T17:47:07.706Z,7.20
2023-01-05T17:49:34.281Z,6.67
2023-01-05T17:52:00.810Z,8.57
2023-01-05T17:54:27.262Z,16.13
2023-01-05T17:56:53.711Z,17.93
2023-01-05T17:59:20.172Z,14.10
2023-01-05T18:04:17.972Z,9.73
2023-01-05T18:06:44.410Z,10.83
2023-01-05T18:09:10.867Z,11.67
2023-01-05T18:11:37.300Z,12.20
2023-01-05T18:14:03.783Z,12.63
2023-01-05T18:18:56.580Z,12.40
2023-01-05T18:21:26.134Z,13.20
2023-01-05T18:23:52.609Z,13.27
2023-01-05T18:26:19.099Z,14.87
2023-01-05T18:28:45.609Z,14.00
2023-01-05T18:31:16.256Z,14.13
2023-01-05T18:33:43.058Z,14.13
2023-01-05T18:36:13.696Z,14.10
2023-01-05T18:38:40.887Z,15.57
2023-01-05T18:41:08.266Z,15.67
2023-01-05T18:43:36.013Z,14.30
2023-01-05T18:46:02.815Z,15.70
2023-01-05T18:48:29.425Z,19.57
2023-01-05T18:50:57.085Z,20.37
2023-01-05T18:53:23.913Z,16.57
2023-01-05T18:55:50.374Z,14.80
2023-01-05T18:58:18.140Z,14.03
2023-01-05T19:00:45.929Z,12.17
2023-01-05T19:03:12.557Z,11.43
2023-01-05T19:05:42.910Z,10.10
2023-01-05T19:08:10.839Z,9.63
2023-01-05T19:10:37.777Z,10.33
2023-01-05T19:13:04.553Z,13.20
2023-01-05T19:15:33.655Z,11.97
2023-01-05T19:18:00.174Z,13.37
2023-01-05T19:20:26.677Z,15.33
2023-01-05T19:22:53.176Z,13.77
2023-01-05T19:25:19.689Z,14.53
2023-01-05T19:27:46.275Z,14.57
2023-01-05T19:30:14.941Z,13.60
2023-01-05T19:32:41.449Z,13.10
2023-01-05T19:35:08.107Z,12.00
2023-01-05T19:37:35.646Z,11.07
2023-01-05T19:40:02.827Z,9.43
2023-01-05T19:42:31.303Z,8.40
2023-01-05T19:44:57.746Z,8.60
2023-01-05T19:47:24.203Z,8.17
2023-01-05T19:49:50.710Z,8.20
2023-01-05T19:52:17.157Z,7.83
2023-01-05T19:54:43.668Z,8.90
2023-01-05T19:57:10.187Z,6.27
2023-01-05T19:59:36.714Z,6.23
2023-01-05T20:02:05.029Z,6.97
2023-01-05T20:04:32.300Z,5.53
2023-01-05T20:06:58.901Z,5.00
2023-01-05T20:09:25.757Z,5.60
2023-01-05T20:11:59.478Z,5.70
2023-01-05T20:14:32.663Z,5.10
2023-01-05T20:17:01.543Z,5.90
2023-01-05T20:19:29.598Z,6.00
2023-01-05T20:21:57.487Z,6.13
2023-01-05T20:24:29.260Z,5.80
2023-01-05T20:27:01.773Z,10.47
2023-01-05T20:29:29.198Z,17.60
2023-01-05T20:32:01.921Z,20.33
2023-01-05T20:34:32.181Z,13.40
2023-01-05T20:36:59.873Z,9.80
2023-01-05T20:39:26.478Z,7.70
2023-01-05T20:41:54.014Z,8.43
2023-01-05T20:44:25.504Z,7.07
2023-01-05T20:46:53.876Z,5.53
2023-01-05T20:49:21.525Z,4.47
2023-01-05T20:51:48.025Z,4.77
2023-01-05T20:54:15.412Z,4.70
2023-01-05T20:56:43.754Z,4.57
2023-01-05T20:59:16.081Z,5.77
2023-01-05T21:01:42.613Z,5.97
2023-01-05T21:04:09.137Z,5.07
2023-01-05T21:06:35.680Z,5.00
2023-01-05T21:09:03.521Z,4.67
2023-01-05T21:11:29.983Z,5.00
2023-01-05T21:13:57.667Z,6.00
2023-01-05T21:16:30.663Z,6.10
2023-01-05T21:18:58.449Z,6.60
2023-01-05T21:21:26.923Z,6.40
2023-01-05T21:23:54.437Z,6.70
2023-01-05T21:26:22.082Z,6.53
2023-01-05T21:28:50.819Z,6.90
2023-01-05T21:31:19.655Z,7.23
2023-01-05T21:33:46.882Z,6.73
2023-01-05T21:36:22.326Z,5.93
2023-01-05T21:39:01.125Z,6.17
2023-01-05T21:41:49.688Z,5.93
2023-01-05T21:44:16.226Z,5.80
2023-01-05T21:46:43.157Z,5.70
2023-01-05T21:49:10.686Z,6.03
2023-01-05T21:51:55.728Z,5.67
2023-01-05T21:54:41.520Z,5.80
2023-01-05T21:57:07.969Z,5.33
2023-01-05T21:59:34.925Z,5.80
2023-01-05T22:02:01.861Z,5.80
2023-01-05T22:04:28.524Z,5.93
2023-01-05T22:06:54.989Z,6.43
2023-01-05T22:09:21.542Z,6.17
2023-01-05T22:11:48.025Z,6.83
2023-01-05T22:14:15.888Z,6.83
2023-01-05T22:16:42.510Z,6.80
2023-01-05T22:19:11.622Z,7.50
2023-01-05T22:21:40.843Z,6.60
2023-01-05T22:24:08.962Z,7.30
2023-01-05T22:26:35.426Z,6.77
2023-01-05T22:29:01.896Z,7.00
2023-01-05T22:31:29.910Z,7.10
2023-01-05T22:33:58.900Z,7.10
2023-01-05T22:36:27.747Z,7.77
2023-01-05T22:38:55.543Z,7.73
2023-01-05T22:41:30.204Z,7.47
2023-01-05T22:43:59.297Z,7.53
2023-01-05T22:46:27.905Z,7.80
2023-01-05T22:48:56.343Z,7.50
2023-01-05T22:51:27.121Z,7.70
2023-01-05T22:53:54.120Z,7.27
2023-01-05T22:56:21.978Z,6.80
2023-01-05T22:58:48.572Z,6.90
2023-01-05T23:01:21.816Z,7.60
2023-01-05T23:03:48.900Z,6.80
2023-01-05T23:06:16.047Z,7.57
2023-01-05T23:08:43.250Z,7.93
2023-01-05T23:11:12.835Z,7.77
2023-01-05T23:13:39.596Z,7.70
2023-01-05T23:16:06.452Z,8.07
2023-01-05T23:18:35.026Z,8.17
2023-01-05T23:21:05.496Z,7.60
2023-01-05T23:23:32.408Z,8.07
2023-01-05T23:25:59.690Z,8.07
2023-01-05T23:28:28.073Z,8.60
2023-01-05T23:30:57.446Z,8.60
2023-01-05T23:33:26.471Z,9.27
2023-01-05T23:35:53.906Z,9.87
2023-01-05T23:38:21.765Z,9.23
2023-01-05T23:40:50.097Z,10.10
2023-01-05T23:43:18.872Z,10.23
2023-01-05T23:45:46.054Z,10.63
2023-01-05T23:48:13.102Z,10.57
2023-01-05T23:50:47.766Z,10.67
2023-01-05T23:53:14.814Z,11.90
2023-01-05T23:55:41.861Z,12.27
2023-01-05T23:58:09.189Z,12.07
